Time;durP1;ratioP1;P1;durP2;ratioP2;P2;SDS_P1;SDS_P2;PMS_P1;PMS_P2;Temp;Humidity;BMP_temperature;BMP_pressure;BME280_temperature;BME280_humidity;BME280_pressure;Samples;Min_cycle;Max_cycle;Signal;HPM_P1;HPM_P2
2023/09/11 00:01:15;;;;;;;8.50;7.70;;;20.00;99.90;;;;;;4986795;28;20215;-71
2023/09/11 00:03:41;;;;;;;8.82;8.07;;;20.00;99.90;;;;;;4988527;28;20585;-70
2023/09/11 00:06:06;;;;;;;8.40;7.65;;;20.00;99.90;;;;;;4989235;28;20179;-71
2023/09/11 00:08:33;;;;;;;8.40;7.80;;;20.00;99.90;;;;;;4988539;28;20575;-71
2023/09/11 00:10:59;;;;;;;8.85;8.07;;;20.10;99.90;;;;;;4989788;28;20195;-71
2023/09/11 00:13:25;;;;;;;8.03;7.40;;;20.50;99.90;;;;;;4988809;28;20195;-70
2023/09/11 00:15:51;;;;;;;9.50;8.52;;;20.00;99.90;;;;;;4988860;28;20955;-71
2023/09/11 00:18:16;;;;;;;8.60;7.80;;;20.00;99.90;;;;;;4987569;28;20210;-70
2023/09/11 00:20:42;;;;;;;9.63;8.60;;;20.00;99.90;;;;;;4990078;28;20302;-70
2023/09/11 00:23:08;;;;;;;9.63;7.73;;;20.00;99.90;;;;;;4986720;28;20250;-70
2023/09/11 00:25:34;;;;;;;8.47;7.70;;;20.00;99.90;;;;;;4989301;28;20645;-71
2023/09/11 00:28:00;;;;;;;9.10;8.40;;;19.90;99.90;;;;;;4989603;28;20461;-71
2023/09/11 00:30:25;;;;;;;9.67;8.07;;;19.80;99.90;;;;;;4987459;28;20187;-70
2023/09/11 00:32:51;;;;;;;8.67;7.77;;;19.80;99.90;;;;;;4986795;28;20188;-70
2023/09/11 00:35:17;;;;;;;8.93;8.13;;;19.80;99.90;;;;;;4989759;28;20326;-70
2023/09/11 00:37:42;;;;;;;10.20;9.20;;;19.80;99.90;;;;;;4987818;28;20752;-71
2023/09/11 00:40:08;;;;;;;9.33;8.30;;;19.70;99.90;;;;;;4988559;28;20209;-71
2023/09/11 00:42:34;;;;;;;9.70;8.43;;;19.80;99.90;;;;;;4988705;28;20305;-71
2023/09/11 00:44:59;;;;;;;9.50;8.63;;;19.80;99.90;;;;;;4988763;28;20657;-71
2023/09/11 00:47:25;;;;;;;8.87;8.00;;;19.80;99.90;;;;;;4986515;28;20280;-71
2023/09/11 00:49:52;;;;;;;9.70;8.70;;;19.80;99.90;;;;;;4989168;28;20187;-71
2023/09/11 00:52:18;;;;;;;9.05;8.23;;;19.80;99.90;;;;;;4986704;28;20210;-71
2023/09/11 00:54:44;;;;;;;9.03;8.30;;;19.80;99.90;;;;;;4987293;28;20286;-71
2023/09/11 00:57:10;;;;;;;9.03;8.23;;;19.80;99.90;;;;;;4985684;28;20190;-71
2023/09/11 00:59:35;;;;;;;8.97;8.17;;;19.80;99.90;;;;;;4987540;28;20621;-71
2023/09/11 01:02:01;;;;;;;9.00;8.20;;;19.80;99.90;;;;;;4986365;28;20439;-71
2023/09/11 01:04:28;;;;;;;8.82;8.13;;;20.60;99.90;;;;;;4988373;28;20183;-71
2023/09/11 01:06:54;;;;;;;8.55;7.75;;;19.70;99.90;;;;;;4987614;28;20605;-71
2023/09/11 01:09:20;;;;;;;8.93;8.03;;;19.70;99.90;;;;;;4987701;28;20299;-71
2023/09/11 01:11:45;;;;;;;10.00;9.07;;;19.60;99.90;;;;;;4985803;28;20218;-71
2023/09/11 01:14:11;;;;;;;9.30;8.50;;;19.50;99.90;;;;;;4986683;28;20199;-70
2023/09/11 01:16:58;;;;;;;9.30;8.40;;;19.50;99.90;;;;;;4986389;28;20188;-71
2023/09/11 01:19:56;;;;;;;8.65;7.93;;;19.20;99.90;;;;;;4988613;28;20708;-71
2023/09/11 01:22:59;;;;;;;8.90;8.10;;;19.60;99.90;;;;;;4986157;28;20214;-71
2023/09/11 01:25:39;;;;;;;9.43;8.52;;;19.60;99.90;;;;;;4987490;28;20201;-71
2023/09/11 01:28:14;;;;;;;8.90;8.10;;;19.60;99.90;;;;;;4987967;28;20266;-71
2023/09/11 01:30:42;;;;;;;9.25;8.45;;;19.50;99.90;;;;;;4984181;28;20631;-71
2023/09/11 01:33:07;;;;;;;8.98;8.15;;;19.50;99.90;;;;;;4987079;28;20183;-71
2023/09/11 01:35:33;;;;;;;8.93;8.13;;;19.60;99.90;;;;;;4986938;28;20279;-70
2023/09/11 01:37:59;;;;;;;8.50;7.80;;;19.50;99.90;;;;;;4985176;28;20203;-71
2023/09/11 01:40:28;;;;;;;9.67;8.77;;;19.50;99.90;;;;;;4987178;28;20672;-71
2023/09/11 01:42:56;;;;;;;9.60;8.80;;;19.50;99.90;;;;;;4986643;28;20653;-71
2023/09/11 01:45:23;;;;;;;9.25;8.10;;;19.40;99.90;;;;;;4984733;28;20199;-71
2023/09/11 01:47:52;;;;;;;9.82;8.93;;;19.30;99.90;;;;;;4985068;28;20222;-70
2023/09/11 01:50:23;;;;;;;8.52;7.63;;;19.20;99.90;;;;;;4986341;28;20307;-70
2023/09/11 01:52:49;;;;;;;9.48;8.65;;;19.30;99.90;;;;;;4981132;28;20533;-71
2023/09/11 01:55:16;;;;;;;9.65;8.75;;;19.30;99.90;;;;;;4987391;28;20893;-71
2023/09/11 01:57:42;;;;;;;9.55;8.73;;;19.20;99.90;;;;;;4986667;28;20219;-71
2023/09/11 02:00:09;;;;;;;8.45;7.75;;;19.50;99.90;;;;;;4988645;28;20208;-71
2023/09/11 02:02:34;;;;;;;9.20;8.40;;;19.20;99.90;;;;;;4980066;28;20325;-71
2023/09/11 02:05:03;;;;;;;9.57;8.67;;;19.20;99.90;;;;;;4986538;28;20189;-71
2023/09/11 02:07:28;;;;;;;8.73;7.82;;;19.20;99.90;;;;;;4987122;28;20183;-71
2023/09/11 02:09:54;;;;;;;8.60;7.90;;;19.10;99.90;;;;;;4987013;28;20234;-71
2023/09/11 02:12:22;;;;;;;8.43;7.73;;;19.20;99.90;;;;;;4986036;28;20190;-71
2023/09/11 02:14:48;;;;;;;9.68;8.77;;;19.20;99.90;;;;;;4987807;28;20577;-71
2023/09/11 02:17:13;;;;;;;9.23;8.40;;;19.20;99.90;;;;;;4985060;28;20183;-71
2023/09/11 02:19:39;;;;;;;9.80;8.40;;;19.10;99.90;;;;;;4981943;28;20282;-71
2023/09/11 02:22:04;;;;;;;8.60;7.90;;;19.20;99.90;;;;;;4987366;28;20194;-70
2023/09/11 02:24:30;;;;;;;9.13;8.30;;;19.20;99.90;;;;;;4983828;28;20184;-71
2023/09/11 02:26:56;;;;;;;9.60;8.77;;;19.20;99.90;;;;;;4987394;28;20221;-71
2023/09/11 02:29:22;;;;;;;9.75;8.85;;;19.20;99.90;;;;;;4986543;28;20299;-71
2023/09/11 02:31:47;;;;;;;9.37;8.57;;;19.30;99.90;;;;;;4984342;28;20290;-70
2023/09/11 02:34:13;;;;;;;9.10;8.40;;;19.30;99.90;;;;;;4987736;28;20198;-70
2023/09/11 02:36:39;;;;;;;8.63;7.83;;;19.40;99.90;;;;;;4987758;28;20180;-71
2023/09/11 02:39:04;;;;;;;10.30;8.37;;;19.30;99.90;;;;;;4980223;28;20211;-71
2023/09/11 02:41:30;;;;;;;9.67;8.77;;;19.20;99.90;;;;;;4987333;28;20677;-71
2023/09/11 02:43:56;;;;;;;9.20;8.40;;;19.20;99.90;;;;;;4987030;28;20187;-71
2023/09/11 02:46:22;;;;;;;10.10;8.40;;;19.20;99.90;;;;;;4985930;28;20187;-70
2023/09/11 02:48:48;;;;;;;10.07;9.07;;;19.20;99.90;;;;;;4987163;28;20230;-71
2023/09/11 02:51:15;;;;;;;9.40;8.50;;;19.20;99.90;;;;;;4986513;28;20187;-70
2023/09/11 02:53:41;;;;;;;8.77;7.97;;;19.20;99.90;;;;;;4981711;28;20226;-70
2023/09/11 02:56:06;;;;;;;9.57;8.57;;;19.20;99.90;;;;;;4987424;28;20192;-70
2023/09/11 02:58:32;;;;;;;9.10;8.30;;;19.10;99.90;;;;;;4987063;28;20215;-70
2023/09/11 03:01:05;;;;;;;8.60;7.90;;;19.10;99.90;;;;;;4987028;28;20235;-70
2023/09/11 03:03:31;;;;;;;8.38;7.57;;;19.10;99.90;;;;;;4986104;28;20199;-71
2023/09/11 03:06:00;;;;;;;10.43;9.43;;;19.10;99.90;;;;;;4986103;28;20214;-71
2023/09/11 03:08:27;;;;;;;10.98;8.93;;;19.10;99.90;;;;;;4985456;28;20688;-71
2023/09/11 03:10:53;;;;;;;9.75;8.85;;;19.10;99.90;;;;;;4987008;28;20283;-71
2023/09/11 03:13:18;;;;;;;11.30;9.00;;;19.10;99.90;;;;;;4986607;28;20716;-70
2023/09/11 03:15:44;;;;;;;8.10;7.40;;;19.00;99.90;;;;;;4987665;28;20274;-70
2023/09/11 03:18:10;;;;;;;9.83;8.90;;;19.40;99.90;;;;;;4984731;28;20218;-71
2023/09/11 03:20:36;;;;;;;9.82;8.80;;;19.00;99.90;;;;;;4987158;28;20219;-70
2023/09/11 03:23:01;;;;;;;10.80;8.47;;;19.00;99.90;;;;;;4985331;28;20185;-70
2023/09/11 03:25:27;;;;;;;9.67;8.93;;;19.00;99.90;;;;;;4985408;28;20297;-70
2023/09/11 03:27:53;;;;;;;9.10;8.20;;;19.00;99.90;;;;;;4986699;28;20582;-70
2023/09/11 03:30:19;;;;;;;10.40;9.50;;;18.90;99.90;;;;;;4983511;28;20262;-71
2023/09/11 03:32:44;;;;;;;8.67;7.90;;;18.80;99.90;;;;;;4985122;28;20262;-70
2023/09/11 03:35:10;;;;;;;9.60;8.60;;;18.80;99.90;;;;;;4987078;28;20179;-70
2023/09/11 03:37:36;;;;;;;9.03;8.23;;;18.80;99.90;;;;;;4987339;28;20302;-71
2023/09/11 03:40:07;;;;;;;10.52;9.52;;;18.70;99.90;;;;;;4990242;28;20220;-71
2023/09/11 03:42:34;;;;;;;9.07;8.27;;;18.60;99.90;;;;;;4989816;28;20204;-70
2023/09/11 03:45:00;;;;;;;10.55;9.00;;;18.50;99.90;;;;;;4990271;28;20274;-71
2023/09/11 03:47:26;;;;;;;9.90;9.00;;;18.60;99.90;;;;;;4989633;28;20756;-70
2023/09/11 03:49:51;;;;;;;10.03;9.13;;;18.70;99.90;;;;;;4989084;28;20453;-71
2023/09/11 03:52:17;;;;;;;11.50;9.80;;;18.50;99.90;;;;;;4988033;28;20537;-70
2023/09/11 03:54:42;;;;;;;8.73;7.97;;;18.50;99.90;;;;;;4988061;28;20246;-70
2023/09/11 03:57:08;;;;;;;10.83;9.13;;;18.50;99.90;;;;;;4990742;28;20274;-70
2023/09/11 03:59:34;;;;;;;9.93;9.00;;;18.50;99.90;;;;;;4989484;28;20220;-70
2023/09/11 04:01:59;;;;;;;9.73;8.83;;;18.50;99.90;;;;;;4987665;28;20191;-70
2023/09/11 04:04:25;;;;;;;10.53;9.63;;;18.50;99.90;;;;;;4988190;28;20183;-70
2023/09/11 04:06:51;;;;;;;10.30;9.30;;;18.50;99.90;;;;;;4988082;28;20195;-71
2023/09/11 04:09:16;;;;;;;9.40;8.50;;;18.50;99.90;;;;;;4987869;28;20207;-71
2023/09/11 04:11:42;;;;;;;8.87;8.17;;;18.50;99.90;;;;;;4985722;28;20210;-71
2023/09/11 04:14:07;;;;;;;9.07;8.27;;;18.40;99.90;;;;;;4990306;28;20209;-70
2023/09/11 04:16:33;;;;;;;9.30;8.50;;;18.30;99.90;;;;;;4986817;28;20188;-70
2023/09/11 04:18:59;;;;;;;9.60;8.80;;;18.40;99.90;;;;;;4988733;28;20216;-70
2023/09/11 04:21:24;;;;;;;10.17;9.27;;;18.30;99.90;;;;;;4987365;28;20692;-70
2023/09/11 04:23:50;;;;;;;10.77;9.67;;;18.40;99.90;;;;;;4986289;28;20179;-70
2023/09/11 04:26:16;;;;;;;10.37;9.40;;;18.20;99.90;;;;;;4987520;28;20641;-71
2023/09/11 04:28:42;;;;;;;10.30;9.50;;;18.00;99.90;;;;;;4986701;28;20231;-71
2023/09/11 04:31:08;;;;;;;11.37;10.37;;;18.10;99.90;;;;;;4987994;28;20246;-71
2023/09/11 04:33:35;;;;;;;10.47;9.47;;;18.10;99.90;;;;;;4987627;28;20618;-71
2023/09/11 04:36:00;;;;;;;11.68;10.13;;;18.10;99.90;;;;;;4987370;28;20457;-71
2023/09/11 04:38:26;;;;;;;9.93;9.00;;;18.00;99.90;;;;;;4985280;28;20207;-71
2023/09/11 04:40:58;;;;;;;10.50;9.47;;;18.00;99.90;;;;;;4988796;28;20330;-71
2023/09/11 04:43:24;;;;;;;10.40;9.50;;;18.10;99.90;;;;;;4985078;28;20274;-71
2023/09/11 04:45:50;;;;;;;10.33;9.40;;;18.10;99.90;;;;;;4986254;28;20304;-71
2023/09/11 04:48:15;;;;;;;10.73;9.83;;;18.10;99.90;;;;;;4984547;28;20542;-71
2023/09/11 04:50:41;;;;;;;11.40;10.33;;;18.10;99.90;;;;;;4988319;28;20202;-71
2023/09/11 04:53:07;;;;;;;10.67;9.57;;;18.10;99.90;;;;;;4986662;28;20226;-71
2023/09/11 04:55:32;;;;;;;10.40;9.40;;;18.00;99.90;;;;;;4987659;28;20274;-71
2023/09/11 04:57:58;;;;;;;9.80;8.90;;;18.00;99.90;;;;;;4987563;28;20238;-71
2023/09/11 05:00:26;;;;;;;9.93;9.03;;;18.30;99.90;;;;;;4987739;28;20226;-71
2023/09/11 05:02:51;;;;;;;10.80;9.80;;;18.00;99.90;;;;;;4982386;28;20196;-71
2023/09/11 05:05:18;;;;;;;11.00;9.90;;;18.20;99.90;;;;;;4988325;28;20299;-71
2023/09/11 05:07:44;;;;;;;10.70;9.60;;;17.90;99.90;;;;;;4986485;28;20239;-70
2023/09/11 05:10:10;;;;;;;11.50;10.40;;;17.90;99.90;;;;;;4986611;28;20187;-71
2023/09/11 05:12:35;;;;;;;10.93;10.03;;;18.00;99.90;;;;;;4984752;28;20206;-71
2023/09/11 05:15:01;;;;;;;11.83;10.83;;;18.10;99.90;;;;;;4987277;28;20242;-71
2023/09/11 05:17:27;;;;;;;10.52;9.63;;;17.90;99.90;;;;;;4983085;28;20724;-71
2023/09/11 05:19:53;;;;;;;11.40;10.30;;;18.00;99.90;;;;;;4985700;28;20302;-71
2023/09/11 05:22:18;;;;;;;11.37;10.37;;;18.00;99.90;;;;;;4986239;28;20190;-71
2023/09/11 05:24:44;;;;;;;11.73;10.60;;;18.10;99.90;;;;;;4985279;28;20883;-71
2023/09/11 05:27:10;;;;;;;12.03;10.10;;;18.20;99.90;;;;;;4987206;28;20526;-71
2023/09/11 05:29:35;;;;;;;10.77;9.60;;;18.40;99.90;;;;;;4986899;28;20609;-71
2023/09/11 05:32:02;;;;;;;12.43;10.80;;;18.50;99.90;;;;;;4983092;28;20188;-71
2023/09/11 05:34:28;;;;;;;10.25;9.25;;;18.10;99.90;;;;;;4985270;28;20844;-71
2023/09/11 05:36:54;;;;;;;10.30;9.40;;;18.20;99.90;;;;;;4988094;28;20287;-71
2023/09/11 05:39:19;;;;;;;12.77;10.47;;;18.10;99.90;;;;;;4984347;28;20254;-71
2023/09/11 05:41:45;;;;;;;10.87;9.87;;;18.10;99.90;;;;;;4982860;28;20215;-70
2023/09/11 05:44:11;;;;;;;12.13;9.97;;;18.20;99.90;;;;;;4985355;28;20274;-70
2023/09/11 05:46:37;;;;;;;12.25;11.07;;;18.70;99.90;;;;;;4984630;28;20194;-71
2023/09/11 05:49:02;;;;;;;12.13;10.83;;;18.30;99.90;;;;;;4985561;28;20207;-71
2023/09/11 05:51:28;;;;;;;15.10;11.00;;;18.20;99.90;;;;;;4986616;28;20188;-71
2023/09/11 05:53:54;;;;;;;11.33;10.23;;;18.30;99.90;;;;;;4980411;28;20191;-71
2023/09/11 05:56:19;;;;;;;11.60;10.23;;;18.90;99.90;;;;;;4983520;28;20616;-71
2023/09/11 05:58:45;;;;;;;14.80;10.77;;;18.60;99.90;;;;;;4983046;28;20208;-71
2023/09/11 06:01:10;;;;;;;11.50;10.37;;;18.70;99.90;;;;;;4984280;28;20242;-72
2023/09/11 06:03:36;;;;;;;12.23;11.00;;;19.10;99.90;;;;;;4996278;28;20180;-71
2023/09/11 06:06:02;;;;;;;12.00;10.90;;;19.20;99.90;;;;;;4985770;28;20226;-71
2023/09/11 06:08:28;;;;;;;10.83;9.73;;;19.00;99.90;;;;;;4982951;28;20681;-71
2023/09/11 06:10:53;;;;;;;11.30;9.70;;;19.10;99.90;;;;;;4985608;28;20458;-71
2023/09/11 06:13:19;;;;;;;10.33;9.43;;;19.20;99.90;;;;;;4982816;28;20446;-72
2023/09/11 06:15:44;;;;;;;10.00;9.10;;;19.40;99.90;;;;;;4983083;28;20242;-71
2023/09/11 06:18:10;;;;;;;12.30;11.03;;;19.50;99.90;;;;;;4985660;28;20208;-71
2023/09/11 06:20:37;;;;;;;11.47;10.27;;;19.50;99.90;;;;;;4984849;28;20677;-71
2023/09/11 06:23:02;;;;;;;12.10;10.13;;;19.60;99.90;;;;;;4987127;28;20549;-77
2023/09/11 06:25:28;;;;;;;11.37;10.17;;;19.70;99.90;;;;;;4986386;28;20191;-75
2023/09/11 06:27:53;;;;;;;10.83;9.73;;;19.80;99.90;;;;;;4985468;28;20578;-76
2023/09/11 06:30:19;;;;;;;12.83;10.10;;;19.80;99.90;;;;;;4984250;28;20187;-75
2023/09/11 06:32:45;;;;;;;14.03;10.30;;;19.80;99.90;;;;;;4985234;28;20194;-76
2023/09/11 06:35:10;;;;;;;10.47;9.47;;;19.90;99.90;;;;;;4986477;28;20196;-76
2023/09/11 06:37:37;;;;;;;11.33;10.23;;;20.00;99.90;;;;;;4986346;28;20670;-80
2023/09/11 06:40:07;;;;;;;11.65;9.93;;;20.20;99.90;;;;;;4986931;28;20674;-79
2023/09/11 06:42:34;;;;;;;12.10;10.25;;;20.30;99.90;;;;;;4985912;28;20262;-75
2023/09/11 06:44:59;;;;;;;13.82;10.02;;;20.50;99.90;;;;;;4985398;28;20282;-73
2023/09/11 06:47:25;;;;;;;10.77;9.87;;;21.00;99.90;;;;;;4984016;28;20191;-74
2023/09/11 06:49:51;;;;;;;11.17;10.10;;;21.50;99.90;;;;;;4982948;28;20291;-74
2023/09/11 06:52:20;;;;;;;10.80;9.70;;;21.70;99.90;;;;;;4985268;28;20248;-73
2023/09/11 06:54:45;;;;;;;14.77;10.55;;;21.70;99.90;;;;;;4979919;28;20241;-72
2023/09/11 06:57:11;;;;;;;11.60;10.50;;;21.70;99.90;;;;;;4983872;28;20262;-74
2023/09/11 06:59:37;;;;;;;9.50;8.70;;;21.70;99.90;;;;;;4983666;28;20868;-74
2023/09/11 07:02:03;;;;;;;11.07;10.07;;;22.10;99.90;;;;;;4984608;28;20494;-74
2023/09/11 07:04:30;;;;;;;14.53;10.90;;;22.70;99.90;;;;;;4983669;28;20199;-77
2023/09/11 07:06:56;;;;;;;9.33;8.53;;;24.20;99.90;;;;;;4986061;28;20973;-79
2023/09/11 07:09:23;;;;;;;9.53;8.63;;;27.50;97.00;;;;;;4982673;28;20970;-73
2023/09/11 07:11:50;;;;;;;8.93;8.23;;;30.30;90.80;;;;;;4984921;28;20450;-74
2023/09/11 07:14:20;;;;;;;9.20;8.30;;;32.80;81.40;;;;;;4991243;28;20474;-76
2023/09/11 07:16:45;;;;;;;9.17;8.37;;;35.10;72.50;;;;;;4990638;28;20438;-75
2023/09/11 07:19:11;;;;;;;9.13;8.23;;;36.90;64.50;;;;;;4986124;28;21361;-73
2023/09/11 07:21:37;;;;;;;8.40;7.63;;;37.70;57.90;;;;;;4986912;28;20238;-74
2023/09/11 07:24:03;;;;;;;12.70;8.30;;;38.40;55.10;;;;;;4992983;28;20180;-80
2023/09/11 07:26:28;;;;;;;8.87;7.97;;;39.10;53.00;;;;;;4993702;28;20250;-77
2023/09/11 07:29:02;;;;;;;9.20;8.40;;;39.90;50.80;;;;;;5004102;28;20495;-79
2023/09/11 07:31:30;;;;;;;10.67;9.23;;;41.10;48.70;;;;;;4990069;28;20222;-85
2023/09/11 07:33:55;;;;;;;10.07;9.30;;;42.20;46.40;;;;;;4994709;28;20593;-80
2023/09/11 07:36:21;;;;;;;10.77;9.87;;;43.00;44.20;;;;;;4990163;28;20474;-82
2023/09/11 07:38:47;;;;;;;10.67;9.40;;;43.80;42.30;;;;;;4988523;28;20261;-80
2023/09/11 07:41:17;;;;;;;9.10;8.40;;;44.30;40.50;;;;;;4990008;28;20876;-80
2023/09/11 07:43:50;;;;;;;10.53;9.63;;;44.90;39.30;;;;;;4984945;28;20204;-78
2023/09/11 07:46:24;;;;;;;10.40;9.50;;;45.40;37.90;;;;;;4989430;28;20493;-78
2023/09/11 07:48:50;;;;;;;11.83;10.93;;;45.90;36.80;;;;;;4984006;28;20896;-78
2023/09/11 07:51:16;;;;;;;10.17;9.17;;;46.20;35.70;;;;;;4990130;28;20439;-77
2023/09/11 07:53:42;;;;;;;10.07;9.27;;;46.20;34.80;;;;;;4986676;28;20184;-77
2023/09/11 07:56:10;;;;;;;10.33;9.53;;;46.30;34.60;;;;;;4986102;28;20270;-77
2023/09/11 07:58:36;;;;;;;9.60;8.80;;;46.60;34.10;;;;;;4990652;28;20466;-78
2023/09/11 08:01:02;;;;;;;10.47;9.47;;;46.80;33.70;;;;;;4989327;28;20540;-78
2023/09/11 08:03:28;;;;;;;9.23;8.50;;;47.10;32.80;;;;;;4987765;28;21045;-77
2023/09/11 08:05:53;;;;;;;10.00;9.20;;;46.40;32.30;;;;;;4983755;28;20535;-76
2023/09/11 08:08:19;;;;;;;9.67;8.70;;;45.50;33.70;;;;;;4987067;28;20637;-77
2023/09/11 08:10:45;;;;;;;10.60;9.77;;;46.00;33.40;;;;;;5000276;28;20227;-75
2023/09/11 08:13:11;;;;;;;11.07;10.17;;;46.20;33.00;;;;;;4988302;28;20183;-76
2023/09/11 08:15:36;;;;;;;10.13;9.20;;;46.20;32.60;;;;;;4988254;28;20195;-78
2023/09/11 08:18:02;;;;;;;9.33;8.40;;;45.70;32.30;;;;;;4982422;28;20239;-77
2023/09/11 08:20:28;;;;;;;9.17;8.47;;;45.60;33.20;;;;;;4987528;28;20817;-77
2023/09/11 08:22:54;;;;;;;8.63;8.03;;;45.80;32.90;;;;;;4984116;28;20645;-76
2023/09/11 08:25:19;;;;;;;9.33;8.63;;;45.30;33.20;;;;;;4987123;28;20449;-77
2023/09/11 08:27:45;;;;;;;9.87;9.07;;;45.20;33.40;;;;;;4987755;28;20223;-77
2023/09/11 08:30:11;;;;;;;10.40;9.60;;;45.30;33.50;;;;;;4982590;28;20594;-76
2023/09/11 08:32:37;;;;;;;8.97;8.30;;;44.60;34.00;;;;;;4985441;28;20505;-76
2023/09/11 08:35:04;;;;;;;10.33;9.53;;;43.80;35.20;;;;;;4981595;28;20274;-76
2023/09/11 08:37:30;;;;;;;9.67;8.77;;;42.80;36.00;;;;;;4987775;28;20435;-77
2023/09/11 08:39:56;;;;;;;10.80;10.00;;;41.30;38.20;;;;;;4986093;28;20446;-76
2023/09/11 08:42:23;;;;;;;9.93;9.00;;;39.50;40.70;;;;;;4986321;28;20458;-76
2023/09/11 08:44:49;;;;;;;10.57;9.57;;;37.70;43.80;;;;;;4985387;28;20187;-76
2023/09/11 08:47:16;;;;;;;10.70;9.60;;;36.40;46.60;;;;;;4985369;28;20861;-75
2023/09/11 08:49:51;;;;;;;10.40;9.67;;;34.70;49.20;;;;;;4987589;28;20463;-77
2023/09/11 08:52:17;;;;;;;10.83;9.97;;;33.60;52.60;;;;;;4983432;28;20474;-75
2023/09/11 08:54:46;;;;;;;11.47;10.47;;;32.40;55.30;;;;;;4987208;28;20462;-75
2023/09/11 08:57:14;;;;;;;11.10;10.10;;;31.60;58.10;;;;;;4983137;28;20448;-75
2023/09/11 08:59:44;;;;;;;10.73;9.83;;;31.00;60.20;;;;;;4984366;28;20865;-75
2023/09/11 09:02:13;;;;;;;16.87;11.73;;;30.30;63.50;;;;;;4983488;28;20564;-74
2023/09/11 09:04:40;;;;;;;12.57;11.57;;;30.00;67.20;;;;;;4988120;28;20550;-74
2023/09/11 09:07:07;;;;;;;11.00;10.00;;;29.80;68.40;;;;;;4989285;28;20889;-74
2023/09/11 09:09:33;;;;;;;12.80;10.73;;;29.40;70.80;;;;;;5001302;28;20553;-75
2023/09/11 09:11:59;;;;;;;10.93;9.73;;;29.20;72.40;;;;;;4988106;28;20548;-75
2023/09/11 09:14:27;;;;;;;16.53;10.50;;;29.00;73.60;;;;;;4985624;28;20450;-73
2023/09/11 09:16:53;;;;;;;12.13;10.90;;;28.90;74.10;;;;;;4983336;28;20956;-77
2023/09/11 09:19:19;;;;;;;11.60;9.97;;;28.80;76.30;;;;;;4986527;28;20474;-75
2023/09/11 09:22:04;;;;;;;11.40;10.37;;;28.90;76.00;;;;;;4991697;28;20468;-75
2023/09/11 09:24:33;;;;;;;11.07;10.17;;;28.60;77.50;;;;;;4993688;28;20245;-73
2023/09/11 09:27:00;;;;;;;9.37;8.67;;;28.60;77.50;;;;;;4987276;28;20457;-74
2023/09/11 09:29:26;;;;;;;9.77;8.97;;;28.70;77.10;;;;;;4986200;28;20557;-73
2023/09/11 09:31:52;;;;;;;9.70;8.80;;;28.70;76.90;;;;;;4984369;28;20537;-75
2023/09/11 09:34:18;;;;;;;10.10;9.20;;;28.90;75.70;;;;;;4985721;28;20452;-73
2023/09/11 09:36:52;;;;;;;9.23;8.53;;;28.90;73.60;;;;;;4985299;28;20196;-73
2023/09/11 09:39:19;;;;;;;11.67;10.50;;;28.90;74.50;;;;;;4984491;28;20221;-74
2023/09/11 09:41:53;;;;;;;10.63;9.63;;;29.10;74.80;;;;;;4986483;28;20542;-75
2023/09/11 09:44:31;;;;;;;10.13;9.23;;;29.70;72.90;;;;;;5000712;28;20539;-75
2023/09/11 09:47:15;;;;;;;9.40;8.60;;;30.60;68.90;;;;;;4985277;28;20862;-74
2023/09/11 09:49:50;;;;;;;16.43;14.53;;;30.70;65.40;;;;;;4984533;28;20525;-75
2023/09/11 09:52:18;;;;;;;11.10;10.30;;;30.50;66.90;;;;;;4988603;28;20972;-75
2023/09/11 09:54:55;;;;;;;13.70;12.27;;;30.50;67.80;;;;;;4982643;28;20555;-75
2023/09/11 09:57:22;;;;;;;10.80;9.70;;;30.30;68.40;;;;;;4986261;28;20973;-75
2023/09/11 09:59:50;;;;;;;10.77;9.87;;;30.20;68.40;;;;;;4985783;28;20835;-74
2023/09/11 10:02:30;;;;;;;10.87;9.37;;;30.10;68.90;;;;;;4980088;28;20450;-74
2023/09/11 10:04:58;;;;;;;10.33;9.43;;;29.80;68.20;;;;;;4984246;28;20458;-75
2023/09/11 10:07:45;;;;;;;13.60;12.20;;;30.10;69.00;;;;;;4988153;28;20500;-75
2023/09/11 10:10:27;;;;;;;10.23;9.13;;;30.40;68.20;;;;;;4985733;28;20434;-75
2023/09/11 10:13:05;;;;;;;9.77;7.50;;;30.30;66.70;;;;;;4985055;28;20453;-75
2023/09/11 10:15:33;;;;;;;8.50;6.93;;;30.30;63.80;;;;;;4985870;28;20443;-75
2023/09/11 10:18:00;;;;;;;9.23;8.40;;;30.10;63.90;;;;;;4985063;28;20540;-75
2023/09/11 10:20:26;;;;;;;10.60;9.20;;;30.20;65.20;;;;;;4985439;28;21007;-74
2023/09/11 10:22:54;;;;;;;9.50;8.60;;;30.10;65.50;;;;;;4979581;28;20573;-74
2023/09/11 10:25:24;;;;;;;10.13;8.03;;;30.00;66.50;;;;;;4986731;28;20820;-75
2023/09/11 10:27:57;;;;;;;9.67;8.87;;;30.10;67.10;;;;;;4983213;28;20526;-75
2023/09/11 10:30:30;;;;;;;8.83;7.93;;;30.10;66.20;;;;;;4985605;28;20747;-75
2023/09/11 10:33:21;;;;;;;11.80;8.63;;;30.30;65.70;;;;;;4985830;28;20474;-75
2023/09/11 10:35:49;;;;;;;9.47;8.53;;;30.40;64.30;;;;;;4984467;28;20522;-75
2023/09/11 10:38:16;;;;;;;10.63;9.63;;;30.50;64.80;;;;;;4983941;28;20518;-75
2023/09/11 10:40:43;;;;;;;9.23;8.40;;;30.50;64.90;;;;;;4987257;28;20520;-75
2023/09/11 10:43:10;;;;;;;9.47;8.53;;;30.50;63.90;;;;;;4986581;28;20462;-75
2023/09/11 10:45:36;;;;;;;9.00;7.93;;;30.40;64.10;;;;;;4984371;28;20435;-76
2023/09/11 10:48:02;;;;;;;9.10;7.70;;;30.40;64.80;;;;;;4985673;28;20555;-74
2023/09/11 10:50:32;;;;;;;8.53;7.40;;;30.40;64.70;;;;;;4986359;28;20868;-73
2023/09/11 10:52:58;;;;;;;9.33;8.33;;;30.30;64.00;;;;;;4985692;28;20455;-75
2023/09/11 10:55:24;;;;;;;9.67;8.70;;;30.30;65.00;;;;;;4991090;28;20451;-75
2023/09/11 10:57:56;;;;;;;10.03;8.47;;;30.20;65.30;;;;;;4989269;28;20469;-74
2023/09/11 11:00:22;;;;;;;8.10;7.30;;;30.30;65.10;;;;;;4988768;28;20466;-75
2023/09/11 11:02:49;;;;;;;10.97;8.33;;;30.50;64.80;;;;;;4987257;28;20988;-74
2023/09/11 11:05:15;;;;;;;8.87;7.97;;;30.50;64.00;;;;;;4991273;28;20194;-74
2023/09/11 11:07:41;;;;;;;9.50;8.07;;;30.60;63.40;;;;;;4987452;28;21021;-74
2023/09/11 11:10:12;;;;;;;9.13;7.17;;;30.70;62.80;;;;;;4991550;28;20194;-74
2023/09/11 11:12:40;;;;;;;9.23;8.43;;;30.70;63.40;;;;;;4987862;28;20456;-77
2023/09/11 11:15:23;;;;;;;10.00;8.73;;;30.70;62.40;;;;;;4989617;28;20527;-75
2023/09/11 11:18:23;;;;;;;11.27;8.20;;;30.80;62.80;;;;;;4987684;28;20928;-75
2023/09/11 11:21:04;;;;;;;8.70;8.00;;;30.80;62.20;;;;;;4989652;28;20479;-75
2023/09/11 11:23:34;;;;;;;8.67;7.87;;;30.80;63.00;;;;;;4987590;28;20530;-74
2023/09/11 11:26:06;;;;;;;10.53;8.33;;;30.70;63.10;;;;;;4989413;28;20469;-75
2023/09/11 11:28:43;;;;;;;8.87;8.20;;;30.70;62.60;;;;;;5004300;28;20463;-75
2023/09/11 11:31:14;;;;;;;8.67;7.97;;;30.80;62.50;;;;;;4988679;28;20542;-75
2023/09/11 11:33:40;;;;;;;9.87;8.90;;;31.10;62.50;;;;;;4989124;28;20444;-75
2023/09/11 11:36:07;;;;;;;9.23;8.47;;;31.00;61.80;;;;;;4985923;28;20455;-76
2023/09/11 11:38:34;;;;;;;8.87;8.00;;;31.10;61.40;;;;;;4976525;28;20536;-73
2023/09/11 11:41:01;;;;;;;9.50;8.60;;;31.10;60.70;;;;;;4983064;28;20595;-74
2023/09/11 11:43:27;;;;;;;8.23;7.50;;;31.10;60.90;;;;;;4982662;28;20961;-74
2023/09/11 11:45:55;;;;;;;9.20;8.43;;;31.00;61.00;;;;;;4981776;28;20458;-75
2023/09/11 11:48:21;;;;;;;9.20;7.83;;;31.00;61.60;;;;;;4987586;28;20206;-74
2023/09/11 11:50:48;;;;;;;10.23;8.10;;;31.00;60.90;;;;;;4986343;28;20986;-72
2023/09/11 11:53:22;;;;;;;8.87;7.83;;;30.90;61.00;;;;;;4985142;28;20198;-73
2023/09/11 11:55:50;;;;;;;8.47;7.67;;;30.90;60.60;;;;;;4989139;28;20450;-75
2023/09/11 11:58:16;;;;;;;9.37;8.47;;;31.20;60.30;;;;;;4987733;28;20608;-78
2023/09/11 12:00:59;;;;;;;9.57;8.00;;;31.90;58.80;;;;;;5000361;28;20916;-78
2023/09/11 12:03:26;;;;;;;12.20;8.20;;;32.30;58.00;;;;;;4988640;28;20183;-76
2023/09/11 12:05:53;;;;;;;11.30;8.50;;;32.80;56.90;;;;;;4987245;28;21085;-81
2023/09/11 12:08:19;;;;;;;8.67;7.87;;;32.90;57.00;;;;;;4986379;28;20553;-75
2023/09/11 12:10:48;;;;;;;7.80;7.10;;;32.70;56.50;;;;;;4985675;28;20451;-75
2023/09/11 12:13:17;;;;;;;10.10;7.60;;;32.50;56.30;;;;;;4985403;28;20268;-71
2023/09/11 12:15:50;;;;;;;7.67;6.97;;;32.30;56.50;;;;;;4987825;28;20963;-74
2023/09/11 12:18:16;;;;;;;9.10;7.73;;;32.00;56.10;;;;;;4993240;28;20949;-80
2023/09/11 12:20:51;;;;;;;9.20;7.20;;;31.90;57.20;;;;;;4989877;28;21005;-77
2023/09/11 12:23:16;;;;;;;10.13;9.23;;;31.80;57.60;;;;;;4989305;28;20446;-79
2023/09/11 12:25:42;;;;;;;8.70;7.90;;;31.80;58.10;;;;;;4986257;28;20578;-80
2023/09/11 12:28:08;;;;;;;8.83;7.50;;;31.50;58.90;;;;;;4985587;28;20211;-75
2023/09/11 12:30:34;;;;;;;7.73;7.03;;;31.50;58.80;;;;;;4992261;28;20196;-77
2023/09/11 12:33:00;;;;;;;9.23;8.07;;;31.50;59.30;;;;;;4986314;28;20487;-73
2023/09/11 12:35:31;;;;;;;8.83;7.00;;;31.50;58.80;;;;;;4987288;28;20478;-75
2023/09/11 12:37:57;;;;;;;9.13;6.93;;;31.40;57.70;;;;;;4983343;28;20242;-81
2023/09/11 12:40:22;;;;;;;9.33;7.30;;;31.40;58.00;;;;;;4986477;28;20501;-79
2023/09/11 12:42:48;;;;;;;7.37;6.67;;;31.40;58.30;;;;;;4988042;28;20206;-80